aviador You're here:

SARL Decoded Metar

PASO DE LOS LIBRES in ARGENTINA
Report Time2017-09-22 15:00:00
UTC Time2017-09-22 15:25:43
Flight Rules mvfr MVFR
Wind230° at 12 kt
W.Decomp.*RWY 18: 5.8 kt HW 10.5 kt RCW
W.Rank230° ranks 7
Current wind is above 230° avg. (10.1)
Visibility9999 m
Phenomena:N/A
Clouds:Overcast 010 Hf
Expected CloudBase > 400 ft AGL from Temp-Dew spread
Ceiling1,000 ft
Temp14°C (ISA -1)
Dew Point13°C (94% RH)
AAT10.6°C
QNH1020 hPa
Density Alt131 ft
Elevation230 ft
Report Wrong Elevation
Raw Report
METAR SARL 221500Z 23012KT 9999 OVC010 14/13 Q1020 RETSRA=

Extra information for SARL:More info

Metar Taf Metar & Taf Last 4 Metars F.Rules Stats Wind Profile Meteogram Temp Stats Airport Information Weather charts Add Link Nearby VenuesMetar ALERT Operation Metar Decoded Social comments